WXM80 ListenWXM80 Stop

You find our weather info also at:

UK Metoffice

WeatherCloud

Weather Underground

Northeastern Weather Network

AWEKAS

Citizen Weather Observer Program (CWOP)

HAMweather, WeatherForYou, PWS Weather


Weather Underground History page Text

Daily Summary for February 26, 2018 Units:  Metric    English   Both
« Previous Day
Next Day »
Daily Weekly Monthly Yearly Custom
  High: Low: Average:
Temperature: 9.4 °C 2.7 °C 6.5 °C
Dew Point: 6.6 °C -1.1 °C 3.6 °C
Humidity: 99 % 59 % 83 %
Wind Speed: 13.4 km/h 0 km/h 2.1 km/h
Wind Gust: 20.4 km/h - -
Wind:- - West
Pressure: 1015.8 hPa 1007.7 hPa -
Precipitation: 0 mm    
Historical Graphs
 
 
Tabular Data for February 26, 2018
Time Temperature Dew Point Pressure Wind Wind Speed Wind Gust Humidity Rainfall Rate (Hourly)
00:04 5.8 °C 5.5 °C 1008 hPa Calm   5.6 km/h 98 % 0 mm
00:09 5.8 °C 5.5 °C 1007.7 hPa West 1.4 km/h 3.7 km/h 98 % 0 mm
00:14 5.7 °C 5.4 °C 1007.7 hPa West 4.7 km/h 7.4 km/h 98 % 0 mm
00:19 5.7 °C 5.4 °C 1007.7 hPa Calm   1.9 km/h 98 % 0 mm
00:24 5.7 °C 5.4 °C 1007.7 hPa SW 4.5 km/h 8 km/h 98 % 0 mm
00:29 5.7 °C 5.4 °C 1008 hPa WNW 3.4 km/h 5.6 km/h 98 % 0 mm
00:34 5.7 °C 5.4 °C 1008.4 hPa WNW 0.8 km/h 5.6 km/h 98 % 0 mm
00:39 5.7 °C 5.4 °C 1008.4 hPa West 3.5 km/h 5.6 km/h 98 % 0 mm
00:44 5.7 °C 5.4 °C 1008.4 hPa West 5.6 km/h 9.3 km/h 98 % 0 mm
00:49 5.7 °C 5.4 °C 1008 hPa WSW 3.2 km/h 7.4 km/h 98 % 0 mm
00:54 5.6 °C 5.3 °C 1008.4 hPa West 1 km/h 5.6 km/h 98 % 0 mm
00:59 5.6 °C 5.3 °C 1008 hPa Calm   3.2 km/h 98 % 0 mm
01:04 5.6 °C 5.3 °C 1008 hPa West 3.4 km/h 7.4 km/h 98 % 0 mm
01:09 5.6 °C 5.3 °C 1008 hPa WSW 5.3 km/h 7.4 km/h 98 % 0 mm
01:15 5.6 °C 5.3 °C 1008 hPa West 1.9 km/h 5.6 km/h 98 % 0 mm
01:20 5.6 °C 5.3 °C 1008 hPa WSW 4.8 km/h 7.4 km/h 98 % 0 mm
01:25 5.6 °C 5.3 °C 1008 hPa West 3.1 km/h 5.6 km/h 98 % 0 mm
01:30 5.6 °C 5.3 °C 1008 hPa West 3.1 km/h 5.6 km/h 98 % 0 mm
01:35 5.6 °C 5.3 °C 1008 hPa WSW 0.6 km/h 7.4 km/h 98 % 0 mm
01:40 5.6 °C 5.3 °C 1008 hPa WSW 6.4 km/h 7.4 km/h 98 % 0 mm
01:45 5.6 °C 5.3 °C 1008 hPa West 3.7 km/h 7.4 km/h 98 % 0 mm
01:50 5.6 °C 5.3 °C 1008.4 hPa WSW 6.9 km/h 7.4 km/h 98 % 0 mm
01:55 5.6 °C 5.3 °C 1008.4 hPa West 5 km/h 11.1 km/h 98 % 0 mm
02:00 5.6 °C 5.3 °C 1008.7 hPa West 0.5 km/h   98 % 0 mm
02:05 5.6 °C 5.3 °C 1008.4 hPa West 4.7 km/h 6.4 km/h 98 % 0 mm
02:10 5.7 °C 5.4 °C 1008.4 hPa West 4.3 km/h 5.6 km/h 98 % 0 mm
02:15 5.7 °C 5.4 °C 1008.4 hPa West 4.2 km/h 4.8 km/h 98 % 0 mm
02:20 5.7 °C 5.4 °C 1008 hPa WSW 3.4 km/h 5.6 km/h 98 % 0 mm
02:25 5.7 °C 5.4 °C 1008 hPa West 5.1 km/h 9.3 km/h 98 % 0 mm
02:30 5.7 °C 5.4 °C 1008 hPa West 3.5 km/h 6.4 km/h 98 % 0 mm
02:35 5.7 °C 5.4 °C 1008 hPa West 0.2 km/h 3.2 km/h 98 % 0 mm
02:40 5.7 °C 5.4 °C 1008 hPa West 1.8 km/h 3.7 km/h 98 % 0 mm
02:45 5.7 °C 5.4 °C 1008.4 hPa West 1.1 km/h 3.7 km/h 98 % 0 mm
02:50 5.7 °C 5.4 °C 1008 hPa West 3.5 km/h 11.3 km/h 98 % 0 mm
02:55 5.7 °C 5.4 °C 1008 hPa WSW 0.5 km/h 5.6 km/h 98 % 0 mm
03:01 5.7 °C 5.4 °C 1008 hPa NW 1.9 km/h 6.4 km/h 98 % 0 mm
03:06 5.7 °C 5.4 °C 1008 hPa WNW 3.2 km/h 8 km/h 98 % 0 mm
03:11 5.7 °C 5.4 °C 1008 hPa West 3.1 km/h 5.6 km/h 98 % 0 mm
03:16 5.7 °C 5.4 °C 1008.4 hPa West 3.2 km/h 12.9 km/h 98 % 0 mm
03:21 5.8 °C 5.5 °C 1008 hPa West 3.2 km/h 8 km/h 98 % 0 mm
03:26 5.8 °C 5.5 °C 1008 hPa West 4.3 km/h 7.4 km/h 98 % 0 mm
03:31 5.8 °C 5.5 °C 1008 hPa West 1.6 km/h 6.4 km/h 98 % 0 mm
03:36 5.8 °C 5.5 °C 1008 hPa West 3.2 km/h 9.7 km/h 98 % 0 mm
03:41 5.8 °C 5.5 °C 1008.4 hPa West 3.2 km/h 8 km/h 98 % 0 mm
03:46 5.8 °C 5.5 °C 1008 hPa West 1.1 km/h 7.4 km/h 98 % 0 mm
03:51 5.8 °C 5.5 °C 1008 hPa West 0.8 km/h 1.9 km/h 98 % 0 mm
03:56 5.8 °C 5.5 °C 1008 hPa West 2.7 km/h 5.6 km/h 98 % 0 mm
04:01 5.8 °C 5.5 °C 1008 hPa West 3.1 km/h 6.4 km/h 98 % 0 mm
04:06 5.8 °C 5.5 °C 1008 hPa West 2.9 km/h 5.6 km/h 98 % 0 mm
04:11 5.8 °C 5.6 °C 1008 hPa WNW 1.4 km/h 5.6 km/h 98 % 0 mm
04:16 5.8 °C 5.6 °C 1008 hPa WNW 0.2 km/h 1.9 km/h 98 % 0 mm
04:21 5.8 °C 5.6 °C 1008.4 hPa Calm     98 % 0 mm
04:26 5.8 °C 5.5 °C 1008 hPa WNW 0.8 km/h 3.7 km/h 98 % 0 mm
04:31 5.8 °C 5.5 °C 1008 hPa WNW 1 km/h 3.7 km/h 98 % 0 mm
04:37 5.8 °C 5.5 °C 1008.4 hPa Calm     98 % 0 mm
04:42 5.8 °C 5.5 °C 1008.4 hPa WNW 2.4 km/h 5.6 km/h 98 % 0 mm
04:47 5.8 °C 5.5 °C 1008 hPa Calm     98 % 0 mm
04:52 5.8 °C 5.5 °C 1008.4 hPa Calm     98 % 0 mm
04:57 5.8 °C 5.5 °C 1008.4 hPa Calm     98 % 0 mm
05:02 5.8 °C 5.5 °C 1008.4 hPa Calm     98 % 0 mm
05:07 5.8 °C 5.5 °C 1008.4 hPa Calm     98 % 0 mm
05:12 5.7 °C 5.4 °C 1008.4 hPa Calm     98 % 0 mm
05:17 5.7 °C 5.4 °C 1008.4 hPa Calm     98 % 0 mm
05:22 5.7 °C 5.4 °C 1008.4 hPa Calm     98 % 0 mm
05:27 5.6 °C 5.3 °C 1008.4 hPa Calm     98 % 0 mm
05:32 5.5 °C 5.2 °C 1008.4 hPa Calm     98 % 0 mm
05:37 5.4 °C 5.2 °C 1008.4 hPa Calm     98 % 0 mm
05:42 5.3 °C 5.1 °C 1008 hPa Calm     98 % 0 mm
05:47 5.3 °C 5 °C 1008.4 hPa Calm     98 % 0 mm
05:52 5.2 °C 4.9 °C 1008.7 hPa Calm     98 % 0 mm
05:57 5.1 °C 4.8 °C 1009 hPa Calm     98 % 0 mm
06:03 5.1 °C 4.8 °C 1009 hPa Calm     98 % 0 mm
06:08 5 °C 4.7 °C 1009 hPa Calm     98 % 0 mm
06:13 4.9 °C 4.7 °C 1008.7 hPa Calm     98 % 0 mm
06:18 4.9 °C 4.6 °C 1008.7 hPa Calm     98 % 0 mm
06:23 4.8 °C 4.6 °C 1009 hPa Calm     98 % 0 mm
06:28 4.7 °C 4.4 °C 1009.4 hPa WNW 2.6 km/h 3.7 km/h 98 % 0 mm
06:33 4.7 °C 4.4 °C 1009.4 hPa Calm     98 % 0 mm
06:38 4.7 °C 4.4 °C 1009.4 hPa Calm     98 % 0 mm
06:43 4.6 °C 4.3 °C 1009.4 hPa Calm     98 % 0 mm
06:48 4.6 °C 4.3 °C 1009.4 hPa Calm     98 % 0 mm
06:53 4.6 °C 4.3 °C 1009.4 hPa Calm     98 % 0 mm
06:58 4.6 °C 4.3 °C 1009.7 hPa Calm   1.9 km/h 98 % 0 mm
07:03 4.6 °C 4.3 °C 1010 hPa WNW 2.7 km/h 5.6 km/h 98 % 0 mm
07:08 4.6 °C 4.3 °C 1010 hPa WNW 2.4 km/h 3.7 km/h 98 % 0 mm
07:13 4.7 °C 4.4 °C 1010 hPa WNW 0.3 km/h 3.2 km/h 98 % 0 mm
07:18 4.8 °C 4.7 °C 1010 hPa Calm   3.7 km/h 99 % 0 mm
07:23 4.9 °C 4.7 °C 1010 hPa WNW 0.5 km/h 3.7 km/h 99 % 0 mm
07:28 4.9 °C 4.8 °C 1010.4 hPa Calm   1.9 km/h 99 % 0 mm
07:33 5.1 °C 4.9 °C 1010.4 hPa Calm     99 % 0 mm
07:38 5.1 °C 4.8 °C 1010.7 hPa Calm     98 % 0 mm
07:43 5.2 °C 5 °C 1010.4 hPa Calm     99 % 0 mm
07:48 5.3 °C 5.1 °C 1010.7 hPa WNW 1.1 km/h 3.2 km/h 99 % 0 mm
07:54 5.3 °C 5.2 °C 1011.1 hPa WNW 0.2 km/h 3.2 km/h 99 % 0 mm
07:59 5.4 °C 5.2 °C 1011.1 hPa Calm     98 % 0 mm
08:04 5.6 °C 5.4 °C 1011.4 hPa Calm     99 % 0 mm
08:09 5.6 °C 5.4 °C 1011.4 hPa Calm     99 % 0 mm
08:14 5.7 °C 5.5 °C 1011.1 hPa Calm     99 % 0 mm
08:19 5.7 °C 5.6 °C 1011.1 hPa Calm     99 % 0 mm
08:24 5.8 °C 5.7 °C 1011.4 hPa Calm     99 % 0 mm
08:29 5.9 °C 5.7 °C 1011.4 hPa Calm     99 % 0 mm
08:34 6 °C 5.8 °C 1011.1 hPa Calm     99 % 0 mm
08:39 6.1 °C 5.9 °C 1010.7 hPa Calm     99 % 0 mm
08:44 6.2 °C 6 °C 1010.7 hPa Calm     99 % 0 mm
08:49 6.3 °C 6.1 °C 1011.1 hPa Calm     99 % 0 mm
08:54 6.3 °C 6.1 °C 1011.1 hPa Calm     99 % 0 mm
08:59 6.3 °C 6.2 °C 1011.1 hPa Calm     99 % 0 mm
09:04 6.4 °C 6.2 °C 1011.1 hPa Calm   1.9 km/h 99 % 0 mm
09:09 6.4 °C 6.2 °C 1011.1 hPa Calm     99 % 0 mm
09:14 6.4 °C 6.3 °C 1011.1 hPa NW 1.9 km/h 5.6 km/h 99 % 0 mm
09:19 6.5 °C 6.3 °C 1011.1 hPa Calm   5.6 km/h 99 % 0 mm
09:24 6.6 °C 6.4 °C 1011.1 hPa Calm     99 % 0 mm
09:29 6.6 °C 6.4 °C 1011.4 hPa NW 0.5 km/h 6.4 km/h 99 % 0 mm
09:34 6.6 °C 6.4 °C 1011.7 hPa Calm   1.9 km/h 99 % 0 mm
09:39 6.6 °C 6.4 °C 1011.4 hPa Calm     99 % 0 mm
09:45 6.7 °C 6.6 °C 1011.4 hPa WNW 4.2 km/h 6.4 km/h 99 % 0 mm
09:50 6.7 °C 6.6 °C 1011.7 hPa WNW 0.5 km/h 1.9 km/h 99 % 0 mm
09:55 6.7 °C 6.4 °C 1012.1 hPa WNW 0.6 km/h 3.7 km/h 98 % 0 mm
10:00 6.7 °C 6.4 °C 1011.7 hPa WNW 0.2 km/h 5.6 km/h 98 % 0 mm
10:05 6.7 °C 6.4 °C 1011.7 hPa WNW 6.8 km/h 11.1 km/h 98 % 0 mm
10:10 6.7 °C 6.4 °C 1012.1 hPa West 6.8 km/h 14.8 km/h 98 % 0 mm
10:15 6.6 °C 6.3 °C 1012.1 hPa NW 8.9 km/h 14.5 km/h 98 % 0 mm
10:20 6.6 °C 6.3 °C 1012.1 hPa WNW 0.3 km/h 5.6 km/h 98 % 0 mm
10:25 6.5 °C 6.2 °C 1012.1 hPa West 4.3 km/h 7.4 km/h 98 % 0 mm
10:30 6.5 °C 6.2 °C 1011.7 hPa West 1.6 km/h 5.6 km/h 98 % 0 mm
10:35 6.6 °C 6.3 °C 1011.7 hPa WNW 2.4 km/h 5.6 km/h 98 % 0 mm
10:40 6.6 °C 6.3 °C 1011.7 hPa NW 0.2 km/h 7.4 km/h 98 % 0 mm
10:45 6.7 °C 6.4 °C 1012.1 hPa WNW 1 km/h 11.1 km/h 98 % 0 mm
10:50 6.6 °C 6.3 °C 1012.1 hPa WNW 4.7 km/h 8 km/h 98 % 0 mm
10:55 6.6 °C 6.3 °C 1011.7 hPa WNW 5 km/h 9.3 km/h 98 % 0 mm
11:00 6.6 °C 6.3 °C 1011.7 hPa West 1.6 km/h 6.4 km/h 98 % 0 mm
11:05 6.7 °C 6.4 °C 1012.1 hPa WNW 4.2 km/h 9.7 km/h 98 % 0 mm
11:10 6.7 °C 6.3 °C 1012.1 hPa WNW 2.4 km/h 11.1 km/h 97 % 0 mm
11:15 6.8 °C 6.3 °C 1012.1 hPa West 4.5 km/h 7.4 km/h 97 % 0 mm
11:20 6.8 °C 6.2 °C 1012.1 hPa NW 1.6 km/h 3.2 km/h 96 % 0 mm
11:25 6.9 °C 6.3 °C 1011.7 hPa WNW 3.9 km/h 8 km/h 96 % 0 mm
11:30 6.9 °C 6.2 °C 1011.7 hPa WNW 5.1 km/h 7.4 km/h 95 % 0 mm
11:35 7.1 °C 6.2 °C 1011.7 hPa WNW 3.2 km/h 8 km/h 94 % 0 mm
11:40 7.2 °C 6.1 °C 1012.1 hPa WNW 4.8 km/h 8 km/h 93 % 0 mm
11:45 7.3 °C 6.1 °C 1011.7 hPa WNW 1.6 km/h 11.3 km/h 92 % 0 mm
11:50 7.4 °C 6 °C 1011.7 hPa Calm   4.8 km/h 91 % 0 mm
11:55 7.5 °C 5.7 °C 1011.7 hPa WSW 3.1 km/h 9.3 km/h 88 % 0 mm
12:01 7.7 °C 5.7 °C 1011.7 hPa South 4.5 km/h 11.1 km/h 87 % 0 mm
12:06 7.8 °C 5.4 °C 1011.7 hPa WSW 2.3 km/h 5.6 km/h 85 % 0 mm
12:11 7.9 °C 5.4 °C 1011.7 hPa WSW 5.1 km/h 9.3 km/h 84 % 0 mm
12:16 8 °C 5.1 °C 1011.7 hPa West 5.6 km/h 9.7 km/h 82 % 0 mm
12:21 8.1 °C 4.9 °C 1011.7 hPa WSW 2.7 km/h 9.3 km/h 80 % 0 mm
12:26 8.2 °C 4.6 °C 1011.7 hPa WNW 4.3 km/h 7.4 km/h 78 % 0 mm
12:31 8.3 °C 4.3 °C 1011.7 hPa WNW 6 km/h 9.3 km/h 76 % 0 mm
12:36 8.4 °C 4.2 °C 1011.7 hPa NW 6.9 km/h 11.1 km/h 75 % 0 mm
12:41 8.6 °C 4.4 °C 1011.7 hPa NW 2.3 km/h 11.1 km/h 75 % 0 mm
12:46 8.7 °C 4.3 °C 1011.7 hPa SW 3.9 km/h 9.7 km/h 74 % 0 mm
12:51 8.8 °C 4.6 °C 1011.4 hPa WSW 2.3 km/h 7.4 km/h 75 % 0 mm
12:56 8.8 °C 4.3 °C 1011.4 hPa West 6 km/h 13 km/h 73 % 0 mm
13:01 8.9 °C 4.1 °C 1011.4 hPa WSW 7.9 km/h 8 km/h 72 % 0 mm
13:06 8.9 °C 4.1 °C 1011.4 hPa SW 2.3 km/h 7.4 km/h 72 % 0 mm
13:11 8.9 °C 4.1 °C 1011.4 hPa WSW 6.9 km/h 13 km/h 72 % 0 mm
13:16 8.8 °C 4.3 °C 1011.4 hPa SW 3.5 km/h 5.6 km/h 73 % 0 mm
13:21 8.8 °C 4.3 °C 1011.4 hPa WSW 8 km/h 11.3 km/h 73 % 0 mm
13:27 8.8 °C 3.2 °C 1011.1 hPa WNW 7.1 km/h 9.3 km/h 68 % 0 mm
13:32 8.8 °C 3.4 °C 1011.1 hPa WSW 3.1 km/h 11.1 km/h 69 % 0 mm
13:37 8.8 °C 2.8 °C 1011.1 hPa WNW 5.3 km/h 13 km/h 66 % 0 mm
13:42 8.8 °C 3.2 °C 1011.1 hPa West 1.4 km/h 9.3 km/h 68 % 0 mm
13:47 8.8 °C 3.1 °C 1011.1 hPa West 5 km/h 7.4 km/h 67 % 0 mm
13:52 8.9 °C 3.6 °C 1011.1 hPa WSW 1 km/h 9.3 km/h 69 % 0 mm
13:57 9 °C 2.8 °C 1011.1 hPa West 1.3 km/h 11.1 km/h 65 % 0 mm
14:02 9 °C 3 °C 1010.7 hPa West 1.1 km/h 5.6 km/h 66 % 0 mm
14:07 9.1 °C 2.8 °C 1010.7 hPa WSW 1.3 km/h 4.8 km/h 65 % 0 mm
14:12 9.2 °C 2.5 °C 1010.7 hPa WNW 9.2 km/h 18.5 km/h 63 % 0 mm
14:17 9.2 °C 2.1 °C 1010.7 hPa West 7.1 km/h 11.1 km/h 61 % 0 mm
14:22 9.2 °C 1.6 °C 1010.7 hPa WSW 7.1 km/h 11.1 km/h 59 % 0 mm
14:27 9.3 °C 2.1 °C 1010.7 hPa SW 6.9 km/h 11.1 km/h 61 % 0 mm
14:32 9.4 °C 2.7 °C 1010.7 hPa SSW 4.8 km/h 14.8 km/h 63 % 0 mm
14:37 9.4 °C 2.5 °C 1010.7 hPa WSW 2.3 km/h 7.4 km/h 62 % 0 mm
14:42 9.4 °C 2.3 °C 1011.1 hPa WSW 13.4 km/h 20.4 km/h 61 % 0 mm
14:47 9.3 °C 2.2 °C 1011.4 hPa SW 5.8 km/h 20.4 km/h 61 % 0 mm
14:52 9.3 °C 2.1 °C 1011.1 hPa WSW 4 km/h 13 km/h 61 % 0 mm
14:57 9.2 °C 2.1 °C 1011.1 hPa WSW 6 km/h 12.9 km/h 61 % 0 mm
15:02 9.2 °C 2.1 °C 1011.1 hPa SW 10.9 km/h 13 km/h 61 % 0 mm
15:08 9.2 °C 2.1 °C 1011.1 hPa SW 5.8 km/h 16.7 km/h 61 % 0 mm
15:13 9.2 °C 1.8 °C 1011.1 hPa SSW 8.5 km/h 11.1 km/h 60 % 0 mm
15:18 9.2 °C 2.1 °C 1011.1 hPa WSW 4.5 km/h 11.1 km/h 61 % 0 mm
15:23 9.2 °C 2.1 °C 1011.1 hPa WSW 7.9 km/h 16.7 km/h 61 % 0 mm
15:28 9.2 °C 2.1 °C 1011.1 hPa WSW 10.9 km/h 16.7 km/h 61 % 0 mm
15:33 9.2 °C 2.5 °C 1011.1 hPa West 4 km/h 6.4 km/h 63 % 0 mm
15:38 9.2 °C 2.6 °C 1010.7 hPa SW 3.2 km/h 7.4 km/h 63 % 0 mm
15:43 9.2 °C 2.3 °C 1010.7 hPa SW 4.5 km/h 7.4 km/h 62 % 0 mm
15:48 9.3 °C 2.6 °C 1010.7 hPa WSW 0.6 km/h 5.6 km/h 63 % 0 mm
15:53 9.3 °C 2.4 °C 1011.1 hPa WSW 6.1 km/h 11.3 km/h 62 % 0 mm
15:59 9.3 °C 1.9 °C 1011.1 hPa West 6.1 km/h 7.4 km/h 60 % 0 mm
16:04 9.3 °C 2.1 °C 1011.1 hPa West 3.7 km/h 11.3 km/h 61 % 0 mm
16:09 9.3 °C 1.9 °C 1011.4 hPa West 4.2 km/h 7.4 km/h 60 % 0 mm
16:14 9.3 °C 1.7 °C 1011.4 hPa West 1.1 km/h 5.6 km/h 59 % 0 mm
16:19 9.4 °C 1.8 °C 1011.4 hPa WSW 2.3 km/h 5.6 km/h 59 % 0 mm
16:24 9.3 °C 2.2 °C 1011.4 hPa WSW 1 km/h 5.6 km/h 61 % 0 mm
16:29 9.3 °C 1.9 °C 1011.7 hPa WSW 3.5 km/h 5.6 km/h 60 % 0 mm
16:34 9.3 °C 2.2 °C 1011.4 hPa SW 1.3 km/h 4.8 km/h 61 % 0 mm
16:39 9.3 °C 2.4 °C 1011.1 hPa SW 0.2 km/h 3.7 km/h 62 % 0 mm
16:44 9.3 °C 1.9 °C 1011.1 hPa Calm     60 % 0 mm
16:49 9.3 °C 2.4 °C 1011.7 hPa West 1.8 km/h 3.7 km/h 62 % 0 mm
16:54 9.3 °C 3.1 °C 1011.7 hPa West 0.3 km/h 3.7 km/h 65 % 0 mm
16:59 9.3 °C 2.8 °C 1011.7 hPa SW 1.3 km/h 5.6 km/h 64 % 0 mm
17:04 9.2 °C 2.7 °C 1011.7 hPa SW 0.5 km/h 5.6 km/h 64 % 0 mm
17:09 9.1 °C 2.9 °C 1011.4 hPa Calm     65 % 0 mm
17:14 9.1 °C 2.6 °C 1011.7 hPa Calm   1.9 km/h 64 % 0 mm
17:19 9 °C 2.6 °C 1011.7 hPa Calm     64 % 0 mm
17:24 8.9 °C 2.2 °C 1011.7 hPa Calm     63 % 0 mm
17:29 8.8 °C 2.3 °C 1012.1 hPa SW 0.3 km/h 3.7 km/h 64 % 0 mm
17:34 8.7 °C 2.5 °C 1012.1 hPa Calm   1.9 km/h 65 % 0 mm
17:40 8.6 °C 2.3 °C 1012.1 hPa Calm     65 % 0 mm
17:45 8.4 °C 2.4 °C 1012.4 hPa SW 0.2 km/h 3.2 km/h 66 % 0 mm
17:50 8.3 °C 2.5 °C 1012.1 hPa SW 2.9 km/h 5.6 km/h 67 % 0 mm
17:55 8.2 °C 2.6 °C 1012.1 hPa SW 0.2 km/h 1.9 km/h 68 % 0 mm
18:00 8.1 °C 2.5 °C 1012.4 hPa Calm     68 % 0 mm
18:05 7.9 °C 2.6 °C 1012.4 hPa SW 0.3 km/h 1.9 km/h 69 % 0 mm
18:10 7.8 °C 2.5 °C 1012.4 hPa SW 1.1 km/h 3.7 km/h 69 % 0 mm
18:15 7.7 °C 2.1 °C 1012.4 hPa SW 1.6 km/h 3.7 km/h 68 % 0 mm
18:20 7.5 °C 2.4 °C 1012.8 hPa Calm     70 % 0 mm
18:25 7.3 °C 2.2 °C 1012.8 hPa Calm     70 % 0 mm
18:30 7.2 °C 2.1 °C 1012.8 hPa SW 1.6 km/h 3.7 km/h 70 % 0 mm
18:35 7 °C 2.1 °C 1012.8 hPa SW 1.4 km/h 3.7 km/h 71 % 0 mm
18:40 6.9 °C 2 °C 1012.8 hPa SW 0.5 km/h 3.7 km/h 71 % 0 mm
18:45 6.7 °C 1.6 °C 1012.8 hPa SW 1.1 km/h 3.7 km/h 70 % 0 mm
18:50 6.6 °C 1.5 °C 1012.8 hPa WSW 2.6 km/h 5.6 km/h 70 % 0 mm
18:55 6.4 °C 1.2 °C 1012.8 hPa WSW 3.9 km/h 5.6 km/h 69 % 0 mm
19:00 6.3 °C 1.1 °C 1013.1 hPa WSW 1.1 km/h 5.6 km/h 69 % 0 mm
19:05 6.3 °C 1 °C 1013.1 hPa Calm   1.9 km/h 69 % 0 mm
19:10 6.3 °C 1.2 °C 1013.1 hPa Calm   3.7 km/h 70 % 0 mm
19:16 6.2 °C 1.3 °C 1013.1 hPa SW 3.2 km/h 6.4 km/h 71 % 0 mm
19:21 6.2 °C 1.6 °C 1013.1 hPa Calm   3.2 km/h 72 % 0 mm
19:26 6.2 °C 1.5 °C 1013.1 hPa SW 1.6 km/h 6.4 km/h 72 % 0 mm
19:31 6.1 °C 1.4 °C 1013.1 hPa SSW 1.6 km/h 4.8 km/h 72 % 0 mm
19:36 6 °C 1.5 °C 1013.4 hPa SSW 0.5 km/h 3.7 km/h 73 % 0 mm
19:46 5.8 °C 1.3 °C 1013.4 hPa SSW 1.6 km/h 3.2 km/h 73 % 0 mm
19:51 5.7 °C 1.2 °C 1013.4 hPa SW 3.2 km/h 6.4 km/h 73 % 0 mm
19:56 5.6 °C 1.1 °C 1013.4 hPa SW 1.6 km/h 6.4 km/h 73 % 0 mm
20:01 5.4 °C 1 °C 1013.4 hPa SW 1.6 km/h 5.6 km/h 73 % 0 mm
20:06 5.3 °C 0.9 °C 1013.4 hPa SSW 1.8 km/h 3.7 km/h 73 % 0 mm
20:11 5.3 °C 0.8 °C 1013.4 hPa SW 1.9 km/h 5.6 km/h 73 % 0 mm
20:16 5.3 °C 1 °C 1013.8 hPa Calm   3.7 km/h 74 % 0 mm
20:21 5.2 °C 0.9 °C 1013.8 hPa WSW 2.3 km/h 3.7 km/h 74 % 0 mm
20:26 5.2 °C 0.7 °C 1013.8 hPa WSW 1 km/h 5.6 km/h 73 % 0 mm
20:31 5.1 °C 0.5 °C 1013.8 hPa West 0.6 km/h 3.7 km/h 72 % 0 mm
20:36 5.1 °C 0.5 °C 1013.8 hPa West 4 km/h 9.7 km/h 72 % 0 mm
20:41 5.2 °C 0.1 °C 1013.8 hPa West 0.8 km/h 3.2 km/h 70 % 0 mm
20:46 5.2 °C 0.1 °C 1014.1 hPa West 0.5 km/h 3.7 km/h 70 % 0 mm
20:51 5.2 °C 0.4 °C 1014.1 hPa WSW 1.4 km/h 5.6 km/h 71 % 0 mm
20:56 5.3 °C 0.2 °C 1014.4 hPa WSW 2.6 km/h 5.6 km/h 70 % 0 mm
21:01 5.3 °C 0.1 °C 1014.1 hPa West 2.4 km/h 5.6 km/h 69 % 0 mm
21:06 5.4 °C 0.2 °C 1014.4 hPa WSW 1.4 km/h 3.7 km/h 69 % 0 mm
21:11 5.4 °C 0 °C 1014.4 hPa SW 3.1 km/h 7.4 km/h 68 % 0 mm
21:16 5.4 °C -0.2 °C 1014.4 hPa WSW 2.7 km/h 3.7 km/h 67 % 0 mm
21:21 5.5 °C -0.2 °C 1014.4 hPa West 1.9 km/h 5.6 km/h 67 % 0 mm
21:26 5.5 °C -0.2 °C 1014.1 hPa West 4.2 km/h 9.3 km/h 67 % 0 mm
21:32 5.5 °C -0.3 °C 1014.1 hPa WSW 1 km/h 3.7 km/h 66 % 0 mm
21:37 5.5 °C -0.3 °C 1014.4 hPa West 2.4 km/h 8 km/h 66 % 0 mm
21:42 5.4 °C -0.4 °C 1014.4 hPa WSW 0.6 km/h 5.6 km/h 66 % 0 mm
21:47 5.5 °C -0.3 °C 1014.4 hPa WSW 0.8 km/h 3.7 km/h 66 % 0 mm
21:52 5.4 °C -0.2 °C 1014.4 hPa WSW 0.8 km/h 3.2 km/h 67 % 0 mm
21:57 5.4 °C -0.6 °C 1014.4 hPa WSW 2.3 km/h 5.6 km/h 65 % 0 mm
22:02 5.4 °C -0.7 °C 1014.8 hPa WSW 0.3 km/h 5.6 km/h 65 % 0 mm
22:07 5.3 °C -0.5 °C 1014.8 hPa WSW 1.9 km/h 5.6 km/h 66 % 0 mm
22:12 5.2 °C -0.6 °C 1014.8 hPa WSW 0.3 km/h 3.7 km/h 66 % 0 mm
22:17 5.2 °C -0.9 °C 1014.8 hPa WNW 1 km/h 3.7 km/h 65 % 0 mm
22:22 5.1 °C -0.9 °C 1014.8 hPa West 1.6 km/h 3.7 km/h 65 % 0 mm
22:27 5.1 °C -1 °C 1014.8 hPa West 1.4 km/h 3.7 km/h 65 % 0 mm
22:32 5 °C -1.1 °C 1014.8 hPa Calm   3.7 km/h 65 % 0 mm
22:37 4.9 °C -0.5 °C 1015.1 hPa Calm     68 % 0 mm
22:42 4.7 °C -0.5 °C 1015.1 hPa Calm     69 % 0 mm
22:47 4.6 °C -0.4 °C 1015.1 hPa Calm     70 % 0 mm
22:52 4.4 °C -0.4 °C 1015.1 hPa Calm     71 % 0 mm
22:57 4.2 °C -0.6 °C 1015.1 hPa Calm     71 % 0 mm
23:03 3.9 °C -0.7 °C 1015.5 hPa Calm     72 % 0 mm
23:08 3.7 °C -0.5 °C 1015.5 hPa Calm     74 % 0 mm
23:13 3.6 °C -0.4 °C 1015.8 hPa Calm     75 % 0 mm
23:18 3.3 °C -0.6 °C 1015.5 hPa Calm   1.9 km/h 76 % 0 mm
23:23 3.1 °C -0.6 °C 1015.5 hPa West 1.8 km/h 5.6 km/h 77 % 0 mm
23:28 2.9 °C -0.7 °C 1015.5 hPa WNW 1.3 km/h 5.6 km/h 77 % 0 mm
23:33 2.8 °C -0.8 °C 1015.5 hPa WNW 2.1 km/h 5.6 km/h 77 % 0 mm
23:38 2.8 °C -0.8 °C 1015.8 hPa WNW 2.7 km/h 5.6 km/h 77 % 0 mm
23:43 2.7 °C -0.7 °C 1015.8 hPa West 2.1 km/h 5.6 km/h 78 % 0 mm
23:48 2.7 °C -0.7 °C 1015.8 hPa WSW 4 km/h 5.6 km/h 78 % 0 mm
23:53 2.7 °C -0.6 °C 1015.8 hPa WSW 2.1 km/h 3.7 km/h 79 % 0 mm
23:58 2.7 °C -0.6 °C 1015.8 hPa WSW 1.8 km/h 3.7 km/h 79 % 0 mm
Crab Meadow Weather
Compliments of Weather Underground - 3 mb

Script developed by  Jim McMurry - jmcmurry@mwt.net Adapted for the template by  Wim van der Kuil - Leuven-Template.eu

Astronomy: The Sun is around 4.5 billion years old.